KJMR

Mora Municipal Airport

Mora, Minnesota, USA
METAR KJMR 210355Z AUTO 00000KT 10SM CLR 08/02 A3017 RMK AO2
Observed Flight Rules
May-21 @ 03:55 UTC (3 hours ago) Visual Flight Rules
Visibility Clouds
10 miles
  • Clear skies
Temperatures Readings
Current 8°C / 46°F
Dewpoint 2°C / 36°F
Humidity 66%
Altimeter 30.17" Hg
Pressure 1022 hPa
Elevation 309
METAR KJMR 210355Z AUTO 00000KT 10SM CLR 08/02 A3017 RMK AO2
Observed Flight Rules
May-21 @ 03:55 UTC
(3 hours ago)
VFR
Clouds
  • Clear skies
Temperature Dewpoint
8°C / 46°F 2°C / 36°F
Humidity Altimeter Pressure
66% 30.17" Hg 1022 hPa